Time;durP1;ratioP1;P1;durP2;ratioP2;P2;SDS_P1;SDS_P2;PMS_P1;PMS_P2;Temp;Humidity;BMP_temperature;BMP_pressure;BME280_temperature;BME280_humidity;BME280_pressure;Samples;Min_cycle;Max_cycle;Signal;HPM_P1;HPM_P2
2023/10/12 00:02:00;;;;;;;7.32;3.92;;;19.80;99.90;;;;;;5073860;28;20697;-49
2023/10/12 00:04:43;;;;;;;8.40;3.85;;;19.80;99.90;;;;;;5073935;28;20173;-49
2023/10/12 00:07:16;;;;;;;13.88;4.47;;;19.80;99.90;;;;;;5073781;28;20629;-50
2023/10/12 00:09:49;;;;;;;9.73;4.05;;;19.80;99.90;;;;;;5073797;28;20573;-49
2023/10/12 00:12:24;;;;;;;9.38;4.00;;;19.80;99.90;;;;;;5073806;28;20173;-50
2023/10/12 00:14:54;;;;;;;8.23;3.75;;;19.80;99.90;;;;;;5074496;28;20177;-51
2023/10/12 00:17:26;;;;;;;12.52;4.32;;;19.70;99.90;;;;;;5074045;28;20174;-49
2023/10/12 00:19:52;;;;;;;9.02;4.10;;;19.70;99.90;;;;;;5055889;28;20257;-50
2023/10/12 00:22:18;;;;;;;9.77;3.70;;;19.70;99.90;;;;;;5074065;28;20296;-51
2023/10/12 00:24:44;;;;;;;10.85;4.15;;;19.70;99.90;;;;;;5073624;28;20502;-49
2023/10/12 00:27:12;;;;;;;8.40;4.28;;;19.70;99.90;;;;;;5073875;28;20181;-50
2023/10/12 00:29:39;;;;;;;12.45;4.35;;;19.70;99.90;;;;;;5073700;28;20208;-50
2023/10/12 00:32:08;;;;;;;8.85;3.88;;;19.70;99.90;;;;;;5073464;28;20164;-51
2023/10/12 00:34:36;;;;;;;9.93;3.92;;;19.60;99.90;;;;;;5073395;28;20234;-49
2023/10/12 00:37:03;;;;;;;8.15;4.03;;;19.60;99.90;;;;;;5073621;28;20166;-49
2023/10/12 00:39:45;;;;;;;8.95;3.92;;;19.60;99.90;;;;;;5073411;28;20271;-51
2023/10/12 00:42:17;;;;;;;8.15;4.10;;;19.60;99.90;;;;;;5073458;28;20323;-48
2023/10/12 00:44:42;;;;;;;15.35;4.53;;;19.60;99.90;;;;;;5073521;28;20174;-49
2023/10/12 00:47:12;;;;;;;8.20;3.60;;;19.50;99.90;;;;;;5072980;28;20780;-49
2023/10/12 00:49:48;;;;;;;11.13;3.97;;;19.50;99.90;;;;;;5073371;28;20184;-49
2023/10/12 00:52:23;;;;;;;10.10;3.88;;;19.50;99.90;;;;;;5056989;28;20173;-53
2023/10/12 00:54:55;;;;;;;8.55;4.18;;;19.50;99.90;;;;;;5073761;28;20174;-52
2023/10/12 00:57:24;;;;;;;10.95;4.25;;;19.40;99.90;;;;;;5073261;28;20181;-52
2023/10/12 00:59:53;;;;;;;8.25;3.63;;;;;;;;;;5073008;28;20165;-49
2023/10/12 01:02:24;;;;;;;11.23;3.75;;;19.40;99.90;;;;;;5073235;28;20205;-52
2023/10/12 01:04:53;;;;;;;8.90;3.67;;;19.40;99.90;;;;;;5072960;28;20215;-50
2023/10/12 01:07:25;;;;;;;8.20;4.25;;;19.40;99.90;;;;;;5072543;28;20186;-50
2023/10/12 01:10:02;;;;;;;11.82;4.07;;;19.40;99.90;;;;;;5072982;28;20170;-52
2023/10/12 01:12:31;;;;;;;8.85;4.75;;;19.30;99.90;;;;;;5072868;28;20174;-49
2023/10/12 01:14:57;;;;;;;8.15;3.67;;;19.30;99.90;;;;;;5072721;28;20180;-50
2023/10/12 01:17:29;;;;;;;9.98;3.58;;;19.20;99.90;;;;;;5072830;28;20257;-50
2023/10/12 01:19:57;;;;;;;10.43;3.90;;;19.20;99.90;;;;;;5072515;28;20203;-50
2023/10/12 01:22:26;;;;;;;9.57;4.00;;;19.20;99.90;;;;;;5072624;28;20209;-51
2023/10/12 01:27:21;;;;;;;6.85;3.50;;;19.10;99.90;;;;;;5073098;28;20170;-50
2023/10/12 01:29:47;;;;;;;15.02;4.45;;;19.10;99.90;;;;;;5073001;28;20166;-53
2023/10/12 01:34:44;;;;;;;7.20;3.95;;;19.00;99.90;;;;;;5072553;28;20181;-51
2023/10/12 01:37:22;;;;;;;8.07;3.80;;;18.90;99.90;;;;;;5072152;28;20257;-51
2023/10/12 01:45:17;;;;;;;5.72;3.72;;;18.80;99.90;;;;;;5072286;28;20252;-50
2023/10/12 01:47:44;;;;;;;15.25;3.90;;;18.80;99.90;;;;;;5071785;28;20304;-49
2023/10/12 01:50:11;;;;;;;10.63;3.65;;;18.70;99.90;;;;;;5071917;28;20162;-50
2023/10/12 01:52:36;;;;;;;8.43;3.85;;;18.70;99.90;;;;;;5071953;28;20204;-50
2023/10/12 01:55:15;;;;;;;9.43;4.20;;;18.60;99.90;;;;;;5072135;28;20198;-53
2023/10/12 01:57:49;;;;;;;11.93;3.72;;;18.60;99.90;;;;;;5071767;28;20626;-52
2023/10/12 02:00:15;;;;;;;7.38;3.70;;;18.60;99.90;;;;;;5072416;28;20170;-53
2023/10/12 02:02:50;;;;;;;10.30;3.85;;;18.50;99.90;;;;;;5071667;28;20269;-50
2023/10/12 02:05:24;;;;;;;6.32;3.63;;;18.50;99.90;;;;;;5072376;28;20172;-50
2023/10/12 02:07:52;;;;;;;6.57;3.50;;;18.40;99.90;;;;;;5071929;28;20182;-51
2023/10/12 02:10:18;;;;;;;8.48;4.50;;;18.30;99.90;;;;;;5072342;28;20224;-49
2023/10/12 02:12:46;;;;;;;8.80;4.03;;;18.30;99.90;;;;;;5071642;28;20166;-52
2023/10/12 02:15:15;;;;;;;9.25;4.03;;;18.20;99.90;;;;;;5071594;28;20169;-51
2023/10/12 02:17:42;;;;;;;14.50;4.50;;;18.20;99.90;;;;;;5071811;28;20174;-50
2023/10/12 02:20:11;;;;;;;9.95;4.60;;;18.10;99.90;;;;;;5071347;28;20625;-51
2023/10/12 02:22:37;;;;;;;9.93;4.07;;;18.10;99.90;;;;;;5071776;28;20197;-53
2023/10/12 02:25:27;;;;;;;18.67;4.90;;;18.00;99.90;;;;;;5071522;28;20565;-52
2023/10/12 02:27:56;;;;;;;8.05;4.88;;;17.90;99.90;;;;;;5071475;28;20166;-50
2023/10/12 02:30:27;;;;;;;7.35;4.53;;;17.90;99.90;;;;;;5071687;28;20198;-49
2023/10/12 02:33:07;;;;;;;7.03;4.55;;;17.90;99.90;;;;;;5071472;28;20158;-49
2023/10/12 02:35:44;;;;;;;13.50;5.25;;;17.80;99.90;;;;;;5071475;28;20169;-51
2023/10/12 02:38:14;;;;;;;6.40;4.63;;;17.80;99.90;;;;;;5071358;28;20172;-50
2023/10/12 02:40:41;;;;;;;8.75;4.78;;;17.80;99.90;;;;;;5071223;28;20572;-51
2023/10/12 02:43:10;;;;;;;6.38;4.60;;;17.70;99.90;;;;;;5071583;28;20177;-52
2023/10/12 02:45:40;;;;;;;14.27;6.03;;;17.60;99.90;;;;;;5053295;28;20173;-50
2023/10/12 02:48:12;;;;;;;12.20;5.00;;;17.60;99.90;;;;;;5071343;28;20182;-49
2023/10/12 02:50:57;;;;;;;13.13;5.30;;;17.60;99.90;;;;;;5071532;28;20169;-49
2023/10/12 02:53:28;;;;;;;10.80;5.40;;;17.60;99.90;;;;;;5071436;28;20180;-49
2023/10/12 02:55:58;;;;;;;10.98;5.60;;;17.50;99.90;;;;;;5070647;28;20236;-49
2023/10/12 02:58:24;;;;;;;9.68;5.35;;;17.50;99.90;;;;;;5071447;28;20205;-50
2023/10/12 03:00:55;;;;;;;8.55;5.22;;;17.50;99.90;;;;;;5071130;28;20208;-48
2023/10/12 03:03:24;;;;;;;15.50;6.00;;;17.50;99.90;;;;;;5071121;28;20162;-51
2023/10/12 03:05:52;;;;;;;10.23;4.85;;;17.50;99.90;;;;;;5071295;28;20181;-51
2023/10/12 03:08:23;;;;;;;13.88;5.88;;;17.50;99.90;;;;;;5071546;28;20169;-49
2023/10/12 03:13:27;;;;;;;15.48;5.78;;;17.50;99.90;;;;;;5071015;28;20168;-48
2023/10/12 03:15:59;;;;;;;8.40;5.28;;;17.50;99.90;;;;;;5070972;28;20569;-50
2023/10/12 03:18:27;;;;;;;10.88;5.95;;;17.40;99.90;;;;;;5070891;28;20205;-50
2023/10/12 03:21:14;;;;;;;13.70;5.47;;;17.40;99.90;;;;;;5071096;28;20241;-49
2023/10/12 03:23:41;;;;;;;10.25;4.78;;;17.40;99.90;;;;;;5071160;28;20198;-52
2023/10/12 03:26:47;;;;;;;9.95;5.18;;;17.40;99.90;;;;;;5052983;28;20544;-49
2023/10/12 03:29:18;;;;;;;10.35;5.75;;;17.30;99.90;;;;;;5065685;28;20213;-53
2023/10/12 03:34:30;;;;;;;8.75;5.85;;;;;;;;;;5074589;28;20165;-51
2023/10/12 03:36:58;;;;;;;13.55;6.35;;;17.30;99.90;;;;;;5074710;28;20170;-50
2023/10/12 03:47:52;;;;;;;13.27;5.95;;;17.20;99.90;;;;;;5074299;28;20689;-48
2023/10/12 03:50:05;;;;;;;8.93;6.18;;;17.20;99.90;;;;;;5069170;28;20216;-49
2023/10/12 03:52:43;;;;;;;18.65;6.50;;;17.30;99.90;;;;;;5074502;28;20166;-50
2023/10/12 04:02:39;;;;;;;12.73;6.20;;;17.20;99.90;;;;;;5073869;28;20229;-49
2023/10/12 04:21:17;;;;;;;12.98;6.60;;;17.20;99.90;;;;;;5074289;28;20193;-48
2023/10/12 04:24:27;;;;;;;13.27;6.45;;;17.20;99.90;;;;;;5073946;28;20235;-47
2023/10/12 04:26:38;;;;;;;13.18;6.60;;;17.20;99.90;;;;;;5073328;28;20671;-48
2023/10/12 04:29:21;;;;;;;13.80;6.13;;;17.10;99.90;;;;;;5073769;28;20174;-49
2023/10/12 04:31:50;;;;;;;13.95;6.63;;;17.10;99.90;;;;;;5074175;28;20189;-49
2023/10/12 04:34:23;;;;;;;13.30;6.47;;;17.20;99.90;;;;;;5073941;28;20622;-49
2023/10/12 04:36:53;;;;;;;8.35;6.20;;;17.20;99.90;;;;;;5073691;28;20605;-48
2023/10/12 04:39:25;;;;;;;8.60;6.15;;;17.20;99.90;;;;;;5055406;28;20248;-49
2023/10/12 04:46:59;;;;;;;15.20;6.57;;;17.20;99.90;;;;;;5073058;28;20591;-49
2023/10/12 04:57:28;;;;;;;12.20;6.30;;;17.20;99.90;;;;;;5072951;28;20360;-48
2023/10/12 05:00:17;;;;;;;12.70;6.07;;;17.20;99.90;;;;;;5072771;28;20529;-51
2023/10/12 05:10:27;;;;;;;11.00;6.53;;;17.20;99.90;;;;;;5073057;28;20173;-48
2023/10/12 05:13:05;;;;;;;11.40;6.97;;;17.10;99.90;;;;;;5072719;28;20165;-48
2023/10/12 05:15:39;;;;;;;16.08;6.72;;;17.10;99.90;;;;;;5072625;28;20166;-50
2023/10/12 05:18:17;;;;;;;13.27;5.90;;;17.10;99.90;;;;;;5054652;28;20201;-49
2023/10/12 05:20:44;;;;;;;11.75;6.38;;;17.10;99.90;;;;;;5072896;28;20201;-49
2023/10/12 05:23:11;;;;;;;15.38;5.70;;;17.10;99.90;;;;;;5072508;28;20537;-49
2023/10/12 05:28:21;;;;;;;10.45;6.10;;;17.10;99.90;;;;;;5072713;28;20180;-49
2023/10/12 05:30:50;;;;;;;16.58;6.15;;;;;;;;;;5072805;28;20198;-48
2023/10/12 05:35:57;;;;;;;19.25;5.63;;;17.00;99.90;;;;;;5072585;28;20169;-48
2023/10/12 05:38:34;;;;;;;15.00;6.00;;;17.10;99.90;;;;;;5072110;28;20652;-51
2023/10/12 05:41:00;;;;;;;9.63;5.72;;;17.10;99.90;;;;;;5071980;28;20741;-49
2023/10/12 05:43:29;;;;;;;14.25;6.18;;;17.00;99.90;;;;;;5072412;28;20524;-48
2023/10/12 05:45:55;;;;;;;14.18;5.90;;;17.00;99.90;;;;;;5072150;28;20245;-49
2023/10/12 05:48:20;;;;;;;19.92;7.28;;;17.10;99.90;;;;;;5071984;28;20606;-48
2023/10/12 05:50:51;;;;;;;13.82;6.10;;;17.00;99.90;;;;;;5054517;28;20176;-48
2023/10/12 05:53:17;;;;;;;10.70;5.45;;;17.00;99.90;;;;;;5071927;28;20577;-49
2023/10/12 05:55:44;;;;;;;16.25;6.60;;;17.80;99.90;;;;;;5072328;28;20170;-49
2023/10/12 05:58:13;;;;;;;14.98;6.68;;;17.00;99.90;;;;;;5072050;28;20166;-48
2023/10/12 06:00:44;;;;;;;14.27;5.65;;;17.00;99.90;;;;;;5071805;28;20193;-49
2023/10/12 06:03:15;;;;;;;12.98;6.57;;;17.00;99.90;;;;;;5071667;28;20178;-50
2023/10/12 06:05:42;;;;;;;15.95;6.40;;;17.00;99.90;;;;;;5072097;28;20173;-49
2023/10/12 06:08:10;;;;;;;13.45;6.30;;;17.00;99.90;;;;;;5071745;28;20162;-50
2023/10/12 06:10:42;;;;;;;10.07;5.55;;;17.00;99.90;;;;;;5071880;28;20290;-50
2023/10/12 06:13:15;;;;;;;14.02;6.25;;;17.00;99.90;;;;;;5071901;28;20731;-50
2023/10/12 06:15:50;;;;;;;12.88;6.20;;;17.00;99.90;;;;;;5071608;28;20189;-49
2023/10/12 06:18:21;;;;;;;11.65;6.00;;;17.00;99.90;;;;;;5071802;28;20174;-48
2023/10/12 06:21:06;;;;;;;11.27;5.82;;;17.00;99.90;;;;;;5072149;28;20198;-49
2023/10/12 06:23:32;;;;;;;11.85;6.18;;;16.90;99.90;;;;;;5071805;28;20170;-48
2023/10/12 06:25:58;;;;;;;12.70;5.55;;;16.90;99.90;;;;;;5071532;28;20529;-48
2023/10/12 06:28:27;;;;;;;12.10;6.32;;;16.90;99.90;;;;;;5071618;28;20279;-48
2023/10/12 06:30:53;;;;;;;14.23;5.88;;;16.90;99.90;;;;;;5071697;28;20213;-49
2023/10/12 06:33:22;;;;;;;12.25;6.55;;;16.90;99.90;;;;;;5053466;28;20182;-48
2023/10/12 06:36:01;;;;;;;13.15;6.22;;;16.90;99.90;;;;;;5072120;28;20244;-49
2023/10/12 06:38:47;;;;;;;13.70;6.13;;;16.90;99.90;;;;;;5071441;28;20693;-50
2023/10/12 06:43:59;;;;;;;18.00;6.30;;;;;;;;;;5071632;28;20173;-48
2023/10/12 06:46:28;;;;;;;11.57;5.75;;;16.90;99.90;;;;;;5071291;28;20363;-48
2023/10/12 06:49:01;;;;;;;15.52;6.18;;;16.90;99.90;;;;;;5053325;28;20242;-49
2023/10/12 06:51:29;;;;;;;14.93;6.15;;;16.90;99.90;;;;;;5071311;28;20166;-48
2023/10/12 06:54:07;;;;;;;12.38;6.70;;;16.90;99.90;;;;;;5053266;28;20166;-49
2023/10/12 06:56:38;;;;;;;14.80;6.57;;;16.90;99.90;;;;;;5071166;28;20484;-49
2023/10/12 06:59:14;;;;;;;10.18;6.43;;;17.00;99.90;;;;;;5071437;28;20170;-50
2023/10/12 07:04:14;;;;;;;11.55;6.45;;;16.90;99.90;;;;;;5071893;28;20209;-53
2023/10/12 07:06:56;;;;;;;14.00;6.40;;;17.00;99.90;;;;;;5074228;28;20173;-53
2023/10/12 07:09:43;;;;;;;18.92;7.80;;;17.00;99.90;;;;;;5075428;28;20526;-53
2023/10/12 07:12:11;;;;;;;19.00;9.18;;;17.00;99.90;;;;;;5075356;28;20253;-52
2023/10/12 07:14:42;;;;;;;18.80;9.25;;;17.00;99.90;;;;;;5057537;28;20734;-53
2023/10/12 07:17:08;;;;;;;20.77;10.07;;;17.00;99.90;;;;;;5075011;28;20154;-53
2023/10/12 07:19:35;;;;;;;18.95;9.50;;;17.00;99.90;;;;;;5074842;28;20173;-53
2023/10/12 07:22:01;;;;;;;16.30;10.07;;;17.00;99.90;;;;;;5074790;28;20205;-53
2023/10/12 07:24:30;;;;;;;14.90;10.43;;;17.00;99.90;;;;;;5074800;28;20644;-54
2023/10/12 07:27:09;;;;;;;19.52;9.98;;;17.00;99.90;;;;;;5074668;28;20636;-53
2023/10/12 07:29:36;;;;;;;17.65;9.10;;;17.00;99.90;;;;;;5074972;28;20185;-53
2023/10/12 07:32:18;;;;;;;18.15;10.40;;;17.00;99.90;;;;;;5074615;28;20622;-53
2023/10/12 07:34:52;;;;;;;15.82;10.10;;;17.00;99.90;;;;;;5074912;28;20543;-52
2023/10/12 07:37:18;;;;;;;20.45;9.90;;;;;;;;;;5074734;28;20544;-51
2023/10/12 07:39:43;;;;;;;18.13;9.63;;;17.00;99.90;;;;;;5074928;28;20608;-53
2023/10/12 07:42:12;;;;;;;17.88;9.10;;;17.10;99.90;;;;;;5056365;28;20297;-53
2023/10/12 07:44:54;;;;;;;18.88;11.10;;;17.00;99.90;;;;;;5074322;28;20605;-53
2023/10/12 07:47:31;;;;;;;16.10;11.52;;;17.10;99.90;;;;;;5074190;28;20241;-52
2023/10/12 07:49:57;;;;;;;14.15;10.05;;;17.10;99.90;;;;;;5056414;28;20194;-53
2023/10/12 07:52:38;;;;;;;16.70;8.75;;;17.10;99.90;;;;;;5074522;28;20181;-53
2023/10/12 07:55:17;;;;;;;11.02;8.60;;;17.10;99.90;;;;;;5074229;28;20544;-49
2023/10/12 07:57:43;;;;;;;15.60;8.80;;;17.10;99.90;;;;;;5074836;28;20178;-51
2023/10/12 08:13:15;;;;;;;15.32;8.20;;;17.10;99.90;;;;;;5074137;28;20181;-48
2023/10/12 08:16:04;;;;;;;11.70;7.55;;;17.10;99.90;;;;;;5073825;28;20185;-48
2023/10/12 08:19:08;;;;;;;15.88;7.82;;;17.10;99.90;;;;;;5073827;28;20174;-48
2023/10/12 08:21:38;;;;;;;15.63;8.30;;;;;;;;;;5073926;28;20205;-48
2023/10/12 08:32:12;;;;;;;22.13;9.48;;;17.20;99.90;;;;;;5026777;28;20263;-49
2023/10/12 08:45:09;;;;;;;18.00;8.52;;;17.50;99.90;;;;;;5073266;28;20211;-48
2023/10/12 08:50:08;;;;;;;18.67;8.52;;;17.50;99.90;;;;;;5073487;28;20177;-48
2023/10/12 08:52:38;;;;;;;19.00;9.13;;;17.50;99.90;;;;;;5073369;28;20180;-49
2023/10/12 08:55:12;;;;;;;22.48;9.82;;;17.60;99.90;;;;;;5073279;28;20508;-49
2023/10/12 08:58:01;;;;;;;20.77;10.25;;;17.60;99.90;;;;;;5073285;28;20505;-49
2023/10/12 09:03:05;;;;;;;15.70;6.78;;;17.60;99.90;;;;;;5072970;28;20196;-49
2023/10/12 09:05:33;;;;;;;13.45;7.05;;;17.60;99.90;;;;;;5073165;28;20162;-48
2023/10/12 09:11:02;;;;;;;15.23;6.43;;;17.60;99.90;;;;;;5073028;28;20640;-48
2023/10/12 09:13:35;;;;;;;15.95;6.97;;;17.70;99.90;;;;;;5072945;28;20174;-48
2023/10/12 09:16:13;;;;;;;11.25;6.65;;;17.80;99.90;;;;;;5072883;28;20166;-48
2023/10/12 09:18:44;;;;;;;19.00;8.35;;;17.90;99.90;;;;;;5072561;28;20166;-48
2023/10/12 09:24:05;;;;;;;22.13;9.80;;;17.90;99.90;;;;;;5073260;28;20166;-48
2023/10/12 09:26:32;;;;;;;23.02;9.68;;;18.00;99.90;;;;;;5070622;28;20681;-48
2023/10/12 09:36:55;;;;;;;18.00;8.82;;;18.60;99.90;;;;;;5071434;28;20751;-48
2023/10/12 09:39:25;;;;;;;16.58;9.75;;;18.60;99.90;;;;;;5053530;28;20215;-47
2023/10/12 09:42:09;;;;;;;17.63;9.90;;;18.60;99.90;;;;;;5071663;28;20216;-48
2023/10/12 09:44:39;;;;;;;17.35;10.50;;;;;;;;;;5071377;28;20161;-46
2023/10/12 09:47:15;;;;;;;19.30;9.38;;;18.70;99.90;;;;;;5071241;28;20226;-49
2023/10/12 09:49:47;;;;;;;16.25;9.02;;;18.80;99.90;;;;;;5071562;28;20173;-47
2023/10/12 09:52:15;;;;;;;18.85;8.50;;;18.90;99.90;;;;;;5071697;28;20201;-49
2023/10/12 09:54:49;;;;;;;14.85;9.15;;;18.90;99.90;;;;;;5071577;28;20170;-45
2023/10/12 09:57:19;;;;;;;17.52;10.15;;;18.90;99.90;;;;;;5071622;28;20173;-48
2023/10/12 09:59:52;;;;;;;10.35;6.68;;;;;;;;;;5071536;28;20521;-49
2023/10/12 10:02:31;;;;;;;9.27;6.15;;;19.00;99.90;;;;;;5071140;28;20304;-50
2023/10/12 10:05:05;;;;;;;12.60;7.15;;;19.00;99.90;;;;;;5071403;28;20169;-49
2023/10/12 10:07:36;;;;;;;14.57;7.07;;;19.20;99.90;;;;;;5071267;28;20176;-45
2023/10/12 10:10:06;;;;;;;21.63;8.00;;;19.20;99.90;;;;;;5071274;28;20172;-47
2023/10/12 10:12:42;;;;;;;10.52;6.45;;;19.30;99.90;;;;;;5070976;28;20221;-52
2023/10/12 10:15:20;;;;;;;13.10;7.25;;;19.40;99.90;;;;;;5070850;28;20574;-52
2023/10/12 10:17:52;;;;;;;10.32;6.60;;;19.50;99.90;;;;;;5071285;28;20193;-50
2023/10/12 10:22:57;;;;;;;17.85;7.30;;;19.60;99.90;;;;;;5070807;28;20289;-51
2023/10/12 10:25:36;;;;;;;13.93;7.43;;;19.60;99.90;;;;;;5071061;28;20311;-53
2023/10/12 10:28:09;;;;;;;14.88;10.18;;;19.60;99.90;;;;;;5070860;28;20168;-50
2023/10/12 10:30:41;;;;;;;14.57;8.25;;;19.70;99.90;;;;;;5070828;28;20185;-48
2023/10/12 10:33:12;;;;;;;20.02;9.35;;;19.70;99.90;;;;;;5070606;28;20201;-57
2023/10/12 10:36:24;;;;;;;11.60;8.77;;;19.50;99.90;;;;;;5070863;28;20170;-50
2023/10/12 10:41:18;;;;;;;13.82;8.45;;;19.30;99.90;;;;;;5069601;28;20278;-52
2023/10/12 10:43:46;;;;;;;15.93;8.10;;;19.80;99.90;;;;;;5053027;28;20648;-50
2023/10/12 10:46:13;;;;;;;16.48;8.43;;;19.20;99.90;;;;;;5070833;28;20221;-50
2023/10/12 10:48:40;;;;;;;21.63;10.27;;;19.20;99.90;;;;;;5070795;28;20165;-51
2023/10/12 10:51:18;;;;;;;20.30;10.15;;;19.20;99.90;;;;;;5070849;28;20601;-54
2023/10/12 10:53:52;;;;;;;17.58;11.70;;;19.20;99.90;;;;;;5038057;28;20205;-53
2023/10/12 10:56:34;;;;;;;15.82;9.65;;;19.40;99.90;;;;;;5070512;28;20169;-46
2023/10/12 10:59:00;;;;;;;18.13;9.05;;;19.60;99.90;;;;;;5069260;28;20261;-47
2023/10/12 11:01:26;;;;;;;15.80;7.57;;;19.60;99.90;;;;;;5070710;28;20197;-45
2023/10/12 11:03:57;;;;;;;19.48;9.48;;;19.80;99.90;;;;;;5070478;28;20162;-47
2023/10/12 11:06:23;;;;;;;14.18;7.53;;;;;;;;;;5070805;28;20223;-47
2023/10/12 11:09:02;;;;;;;14.70;8.32;;;19.60;99.90;;;;;;5070475;28;20201;-48
2023/10/12 11:11:37;;;;;;;17.52;8.90;;;19.70;99.90;;;;;;5070214;28;20181;-51
2023/10/12 11:14:08;;;;;;;19.90;9.25;;;19.80;99.90;;;;;;5070533;28;20177;-49
2023/10/12 11:16:36;;;;;;;18.95;8.75;;;19.80;99.90;;;;;;5070348;28;20538;-47
2023/10/12 11:19:03;;;;;;;17.48;9.25;;;19.80;99.90;;;;;;5069263;28;20272;-49
2023/10/12 11:21:29;;;;;;;15.98;7.68;;;19.90;99.90;;;;;;5070240;28;20688;-46
2023/10/12 11:24:03;;;;;;;7.68;6.03;;;19.80;99.90;;;;;;5070569;28;20206;-51
2023/10/12 11:26:29;;;;;;;9.35;5.60;;;19.80;99.90;;;;;;5070188;28;20190;-48
2023/10/12 11:29:06;;;;;;;9.25;6.05;;;19.80;99.90;;;;;;5052594;28;20162;-52
2023/10/12 11:31:33;;;;;;;8.68;5.60;;;19.80;99.90;;;;;;5070251;28;20690;-52
2023/10/12 11:34:00;;;;;;;10.18;5.68;;;20.00;99.90;;;;;;5070036;28;20216;-51
2023/10/12 11:36:26;;;;;;;13.27;5.82;;;20.00;99.90;;;;;;5070428;28;20174;-49
2023/10/12 11:39:00;;;;;;;12.60;6.18;;;20.00;99.90;;;;;;5070186;28;20237;-47
2023/10/12 11:41:27;;;;;;;10.23;5.28;;;20.00;99.90;;;;;;5070243;28;20206;-46
2023/10/12 11:43:53;;;;;;;12.38;5.60;;;;;;;;;;5070363;28;20171;-47
2023/10/12 11:46:23;;;;;;;9.65;5.03;;;20.10;99.90;;;;;;5069964;28;20244;-47
2023/10/12 11:49:08;;;;;;;11.80;5.85;;;20.10;99.90;;;;;;5069978;28;20698;-48
2023/10/12 11:51:40;;;;;;;9.15;4.78;;;20.00;99.90;;;;;;5071014;28;20161;-53
2023/10/12 11:54:08;;;;;;;10.13;5.63;;;20.10;99.90;;;;;;5073847;28;20258;-46
2023/10/12 11:56:43;;;;;;;13.35;5.72;;;20.20;99.90;;;;;;5073799;28;20201;-53
2023/10/12 11:59:19;;;;;;;12.00;5.25;;;20.10;99.90;;;;;;5073472;28;20169;-54
2023/10/12 12:01:44;;;;;;;9.75;5.80;;;20.10;99.90;;;;;;5055923;28;20296;-52
2023/10/12 12:04:15;;;;;;;10.43;4.95;;;19.90;99.90;;;;;;5073474;28;20193;-53
2023/10/12 12:06:42;;;;;;;11.23;5.45;;;;;;;;;;5072453;28;20185;-52
2023/10/12 12:09:08;;;;;;;9.13;5.25;;;;;;;;;;5073385;28;20176;-51
2023/10/12 12:11:37;;;;;;;12.98;5.78;;;19.70;99.90;;;;;;5073493;28;20253;-52
2023/10/12 12:14:06;;;;;;;12.48;5.28;;;19.80;99.90;;;;;;5072034;28;20174;-49
2023/10/12 12:16:34;;;;;;;13.57;5.40;;;19.80;99.90;;;;;;5073021;28;20176;-54
2023/10/12 12:19:00;;;;;;;7.93;4.93;;;19.70;99.90;;;;;;5073049;28;20259;-53
2023/10/12 12:21:29;;;;;;;12.05;5.13;;;19.70;99.90;;;;;;5072958;28;20256;-50
2023/10/12 12:24:44;;;;;;;14.70;5.80;;;19.70;99.90;;;;;;5072936;28;20251;-52
2023/10/12 12:26:45;;;;;;;13.75;4.18;;;19.70;99.90;;;;;;5059245;28;20185;-49
2023/10/12 12:29:15;;;;;;;9.93;4.50;;;19.70;99.90;;;;;;5073628;28;20170;-51
2023/10/12 12:31:41;;;;;;;7.43;4.25;;;;;;;;;;5073418;28;20621;-50
2023/10/12 12:34:07;;;;;;;10.85;4.47;;;19.50;99.90;;;;;;5073521;28;20169;-50
2023/10/12 12:36:33;;;;;;;5.93;4.13;;;19.50;99.90;;;;;;5073738;28;20257;-57
2023/10/12 12:39:00;;;;;;;11.00;5.13;;;19.40;99.90;;;;;;5055847;28;20177;-52
2023/10/12 12:41:30;;;;;;;9.25;4.55;;;19.30;99.90;;;;;;5073250;28;20681;-51
2023/10/12 12:43:59;;;;;;;12.07;4.85;;;19.20;99.90;;;;;;5073453;28;20165;-52
2023/10/12 12:46:25;;;;;;;10.15;4.78;;;19.20;99.90;;;;;;5073085;28;20565;-55
2023/10/12 12:48:51;;;;;;;11.02;4.25;;;19.10;99.90;;;;;;5073237;28;20162;-53
2023/10/12 12:51:18;;;;;;;8.13;4.32;;;19.00;99.90;;;;;;5073200;28;20170;-52
2023/10/12 12:53:48;;;;;;;10.60;5.65;;;19.00;99.90;;;;;;5073832;28;20174;-51
2023/10/12 12:56:18;;;;;;;10.68;4.97;;;19.00;99.90;;;;;;5073527;28;20683;-49
2023/10/12 12:58:47;;;;;;;11.45;5.00;;;18.90;99.90;;;;;;5055574;28;20174;-50
2023/10/12 13:01:17;;;;;;;10.55;4.47;;;19.00;99.90;;;;;;5073337;28;20718;-50
2023/10/12 13:03:44;;;;;;;15.82;4.90;;;19.10;99.90;;;;;;5072301;28;20205;-50
2023/10/12 13:06:11;;;;;;;9.65;5.13;;;19.30;99.90;;;;;;5072829;28;20258;-50
2023/10/12 13:08:37;;;;;;;10.05;5.07;;;19.30;99.90;;;;;;5072877;28;20158;-49
2023/10/12 13:11:06;;;;;;;9.35;4.93;;;19.40;99.90;;;;;;5072969;28;20272;-54
2023/10/12 13:13:39;;;;;;;11.82;4.82;;;19.40;99.90;;;;;;5072978;28;20170;-53
2023/10/12 13:16:05;;;;;;;12.60;5.30;;;19.40;99.90;;;;;;5072643;28;20158;-54
2023/10/12 13:18:32;;;;;;;18.27;5.15;;;19.30;99.90;;;;;;5072567;28;20633;-53
2023/10/12 13:20:59;;;;;;;9.68;4.30;;;;;;;;;;5072743;28;20205;-52
2023/10/12 13:23:25;;;;;;;8.32;4.60;;;19.30;99.90;;;;;;5054683;28;20219;-51
2023/10/12 13:25:51;;;;;;;7.88;4.93;;;19.30;99.90;;;;;;5054560;28;20205;-53
2023/10/12 13:28:16;;;;;;;10.43;4.68;;;19.20;99.90;;;;;;5072686;28;20197;-52
2023/10/12 13:30:43;;;;;;;10.43;4.72;;;19.20;99.90;;;;;;5072882;28;20184;-56
2023/10/12 13:33:11;;;;;;;7.47;4.13;;;;;;;;;;5072622;28;20211;-51
2023/10/12 13:35:45;;;;;;;8.43;4.32;;;18.80;99.90;;;;;;5072490;28;20224;-54
2023/10/12 13:38:13;;;;;;;8.10;3.95;;;18.70;99.90;;;;;;5072959;28;20230;-51
2023/10/12 13:40:40;;;;;;;27.55;4.53;;;18.70;99.90;;;;;;5072369;28;20170;-50
2023/10/12 13:43:14;;;;;;;8.82;3.72;;;18.60;99.90;;;;;;5072384;28;20260;-51
2023/10/12 13:45:50;;;;;;;10.73;4.07;;;18.50;99.90;;;;;;5072559;28;20565;-50
2023/10/12 13:48:24;;;;;;;4.53;3.35;;;18.40;99.90;;;;;;5071587;28;20233;-53
2023/10/12 13:50:59;;;;;;;7.72;3.67;;;18.30;99.90;;;;;;5072214;28;20178;-50
2023/10/12 13:53:24;;;;;;;7.70;3.53;;;18.30;99.90;;;;;;5072201;28;20170;-49
2023/10/12 13:55:50;;;;;;;7.25;3.90;;;18.40;99.90;;;;;;5071820;28;20579;-58
2023/10/12 13:58:16;;;;;;;13.63;4.07;;;18.50;99.90;;;;;;5071893;28;20231;-59
2023/10/12 14:00:42;;;;;;;7.32;3.08;;;18.40;99.90;;;;;;5072137;28;20162;-64
2023/10/12 14:03:11;;;;;;;6.35;3.72;;;18.50;99.90;;;;;;5071529;28;20190;-59
2023/10/12 14:05:41;;;;;;;4.80;3.50;;;18.40;99.90;;;;;;5072153;28;20170;-63
2023/10/12 14:08:10;;;;;;;8.95;4.65;;;18.30;99.90;;;;;;5071997;28;20265;-61
2023/10/12 14:10:44;;;;;;;10.23;3.55;;;18.30;99.90;;;;;;5071704;28;20201;-59
2023/10/12 14:13:14;;;;;;;6.97;3.83;;;18.30;99.90;;;;;;5071895;28;20222;-58
2023/10/12 14:15:43;;;;;;;7.10;4.72;;;18.30;99.90;;;;;;5071072;28;20239;-63
2023/10/12 14:18:11;;;;;;;6.63;4.15;;;;;;;;;;5071650;28;20193;-57
2023/10/12 14:20:39;;;;;;;9.25;3.95;;;18.30;99.90;;;;;;5071650;28;20162;-63
2023/10/12 14:23:07;;;;;;;10.40;3.88;;;18.40;99.90;;;;;;5071571;28;20174;-59
2023/10/12 14:25:42;;;;;;;8.40;3.97;;;18.40;99.90;;;;;;5071162;28;20165;-61
2023/10/12 14:28:11;;;;;;;7.03;3.90;;;18.40;99.90;;;;;;5071386;28;20248;-61
2023/10/12 14:30:38;;;;;;;13.20;4.47;;;18.50;99.90;;;;;;5070869;28;20216;-49
2023/10/12 14:33:06;;;;;;;6.90;4.28;;;18.60;99.90;;;;;;5071297;28;20644;-50
2023/10/12 14:35:40;;;;;;;6.47;4.22;;;18.70;99.90;;;;;;5071350;28;20181;-49
2023/10/12 14:38:14;;;;;;;6.72;3.90;;;18.60;99.90;;;;;;5071014;28;20162;-50
2023/10/12 14:40:44;;;;;;;6.47;3.72;;;18.50;99.90;;;;;;5071256;28;20178;-50
2023/10/12 14:43:14;;;;;;;8.23;4.10;;;18.40;99.90;;;;;;5070830;28;20189;-50
2023/10/12 14:45:44;;;;;;;9.02;4.50;;;;;;;;;;5071289;28;20185;-50
2023/10/12 14:48:11;;;;;;;9.15;4.47;;;18.40;99.90;;;;;;5071112;28;20213;-51
2023/10/12 14:50:45;;;;;;;15.75;5.05;;;18.50;99.90;;;;;;5071038;28;20170;-53
2023/10/12 14:53:15;;;;;;;8.70;4.47;;;18.40;99.90;;;;;;5054833;28;20161;-50
2023/10/12 14:55:48;;;;;;;12.05;5.20;;;18.40;99.90;;;;;;5071782;28;20498;-51
2023/10/12 14:58:16;;;;;;;10.75;4.13;;;18.40;99.90;;;;;;5053626;28;20231;-53
2023/10/12 15:00:44;;;;;;;8.23;4.65;;;18.40;99.90;;;;;;5071270;28;20162;-51
2023/10/12 15:03:10;;;;;;;9.30;4.65;;;18.40;99.90;;;;;;5071274;28;20181;-50
2023/10/12 15:05:39;;;;;;;10.90;5.13;;;18.30;99.90;;;;;;5070915;28;20166;-52
2023/10/12 15:08:07;;;;;;;8.38;4.50;;;18.30;99.90;;;;;;5071308;28;20735;-50
2023/10/12 15:10:43;;;;;;;7.88;4.95;;;18.40;99.90;;;;;;5070868;28;20659;-49
2023/10/12 15:13:11;;;;;;;8.85;4.90;;;18.30;99.90;;;;;;5070805;28;20174;-49
2023/10/12 15:15:38;;;;;;;7.60;4.70;;;18.30;99.90;;;;;;5070972;28;20158;-49
2023/10/12 15:18:04;;;;;;;10.30;4.68;;;18.30;99.90;;;;;;5071034;28;20166;-49
2023/10/12 15:20:31;;;;;;;10.18;4.85;;;18.30;99.90;;;;;;5070914;28;20177;-49